createdAt,value
2019-03-08T00:00:41.315Z,5.37
2019-03-08T00:03:09.467Z,1.27
2019-03-08T00:05:38.062Z,1.77
2019-03-08T00:08:06.064Z,4.12
2019-03-08T00:10:34.039Z,1.60
2019-03-08T00:13:02.213Z,3.02
2019-03-08T00:15:30.393Z,1.72
2019-03-08T00:17:58.211Z,1.80
2019-03-08T00:20:26.029Z,1.77
2019-03-08T00:22:54.610Z,2.47
2019-03-08T00:25:22.442Z,3.50
2019-03-08T00:27:50.831Z,1.50
2019-03-08T00:30:18.661Z,1.85
2019-03-08T00:32:46.638Z,1.00
2019-03-08T00:35:15.158Z,3.08
2019-03-08T00:37:43.975Z,1.70
2019-03-08T00:40:12.200Z,1.45
2019-03-08T00:42:40.353Z,1.27
2019-03-08T00:45:09.358Z,3.87
2019-03-08T00:47:37.783Z,1.75
2019-03-08T00:50:05.972Z,1.45
2019-03-08T00:52:34.931Z,1.50
2019-03-08T00:55:03.002Z,1.20
2019-03-08T00:57:30.692Z,1.37
2019-03-08T00:59:58.537Z,1.45
2019-03-08T01:02:26.857Z,2.05
2019-03-08T01:04:54.545Z,1.40
2019-03-08T01:07:22.404Z,1.75
2019-03-08T01:09:50.209Z,2.33
2019-03-08T01:12:17.938Z,1.07
2019-03-08T01:14:45.961Z,1.17
2019-03-08T01:17:15.428Z,1.47
2019-03-08T01:19:43.757Z,1.37
2019-03-08T01:22:11.449Z,1.35
2019-03-08T01:24:39.273Z,1.65
2019-03-08T01:27:07.298Z,1.17
2019-03-08T01:29:35.302Z,2.10
2019-03-08T01:32:05.384Z,1.07
2019-03-08T01:34:33.067Z,1.20
2019-03-08T01:37:01.062Z,1.55
2019-03-08T01:39:28.875Z,2.60
2019-03-08T01:41:56.717Z,1.37
2019-03-08T01:44:25.092Z,1.25
2019-03-08T01:46:54.260Z,1.30
2019-03-08T01:49:22.441Z,0.98
2019-03-08T01:51:50.952Z,1.20
2019-03-08T01:54:19.184Z,1.00
2019-03-08T01:56:47.488Z,1.80
2019-03-08T01:59:15.528Z,1.10
2019-03-08T02:01:43.343Z,1.00
2019-03-08T02:04:12.025Z,2.08
2019-03-08T02:06:39.949Z,2.10
2019-03-08T02:09:07.864Z,1.45
2019-03-08T02:11:35.638Z,1.10
2019-03-08T02:14:03.578Z,1.15
2019-03-08T02:16:31.670Z,1.07
2019-03-08T02:19:00.490Z,1.10
2019-03-08T02:21:28.578Z,1.30
2019-03-08T02:23:56.251Z,1.40
2019-03-08T02:26:24.226Z,1.52
2019-03-08T02:28:52.553Z,1.05
2019-03-08T02:31:20.396Z,1.30
2019-03-08T02:33:48.346Z,1.95
2019-03-08T02:36:17.462Z,1.57
2019-03-08T02:38:45.752Z,1.10
2019-03-08T02:41:13.837Z,1.10
2019-03-08T02:43:41.853Z,1.07
2019-03-08T02:46:09.868Z,1.00
2019-03-08T02:48:37.542Z,1.20
2019-03-08T02:51:05.602Z,1.10
2019-03-08T02:53:34.052Z,1.32
2019-03-08T02:56:01.934Z,1.07
2019-03-08T02:58:29.929Z,1.32
2019-03-08T03:00:58.209Z,1.57
2019-03-08T03:03:25.873Z,1.50
2019-03-08T03:05:53.641Z,1.25
2019-03-08T03:08:21.946Z,1.22
2019-03-08T03:10:49.838Z,1.07
2019-03-08T03:13:17.498Z,1.37
2019-03-08T03:15:45.717Z,1.20
2019-03-08T03:18:13.682Z,1.00
2019-03-08T03:20:41.834Z,1.05
2019-03-08T03:23:09.515Z,0.80
2019-03-08T03:25:37.339Z,1.45
2019-03-08T03:28:05.383Z,0.93
2019-03-08T03:30:33.124Z,0.98
2019-03-08T03:33:01.211Z,0.90
2019-03-08T03:35:29.227Z,1.15
2019-03-08T03:37:56.905Z,1.10
2019-03-08T03:40:24.630Z,1.12
2019-03-08T03:42:52.587Z,1.05
2019-03-08T03:45:20.275Z,1.00
2019-03-08T03:47:48.544Z,1.00
2019-03-08T03:50:18.731Z,0.95
2019-03-08T03:52:46.696Z,0.90
2019-03-08T03:55:14.542Z,1.32
2019-03-08T03:57:42.311Z,1.47
2019-03-08T04:00:11.989Z,0.90
2019-03-08T04:02:39.781Z,0.90
2019-03-08T04:05:07.750Z,1.12
2019-03-08T04:07:35.658Z,0.90
2019-03-08T04:10:04.441Z,1.12
2019-03-08T04:12:32.162Z,0.82
2019-03-08T04:14:59.915Z,0.80
2019-03-08T04:17:27.936Z,0.85
2019-03-08T04:19:55.651Z,1.05
2019-03-08T04:22:23.515Z,0.90
2019-03-08T04:24:51.491Z,0.82
2019-03-08T04:27:19.184Z,0.90
2019-03-08T04:29:47.232Z,0.80
2019-03-08T04:32:15.037Z,0.85
2019-03-08T04:34:43.344Z,0.80
2019-03-08T04:37:11.433Z,0.78
2019-03-08T04:39:39.464Z,1.27
2019-03-08T04:42:07.212Z,0.93
2019-03-08T04:44:36.141Z,0.80
2019-03-08T04:47:03.915Z,0.90
2019-03-08T04:49:31.686Z,0.98
2019-03-08T04:52:00.481Z,3.50
2019-03-08T04:54:28.274Z,0.90
2019-03-08T04:56:56.064Z,1.00
2019-03-08T04:59:24.211Z,0.82
2019-03-08T05:01:51.764Z,1.27
2019-03-08T05:04:19.439Z,0.85
2019-03-08T05:06:47.234Z,0.93
2019-03-08T05:09:15.306Z,1.00
2019-03-08T05:11:43.243Z,0.70
2019-03-08T05:14:11.683Z,0.80
2019-03-08T05:16:39.336Z,0.90
2019-03-08T05:19:07.146Z,0.80
2019-03-08T05:21:34.837Z,1.02
2019-03-08T05:24:02.760Z,0.93
2019-03-08T05:26:30.677Z,1.00
2019-03-08T05:29:01.436Z,0.80
2019-03-08T05:31:29.253Z,0.85
2019-03-08T05:34:03.530Z,0.90
2019-03-08T05:36:31.317Z,0.65
2019-03-08T05:38:59.497Z,0.90
2019-03-08T05:41:27.393Z,0.90
2019-03-08T05:44:45.952Z,0.82
2019-03-08T05:47:18.452Z,0.75
2019-03-08T05:49:45.939Z,0.80
2019-03-08T05:52:14.320Z,0.98
2019-03-08T05:54:43.220Z,0.88
2019-03-08T05:57:11.064Z,0.80
2019-03-08T05:59:39.859Z,0.90
2019-03-08T06:02:07.692Z,1.00
2019-03-08T06:04:36.165Z,0.90
2019-03-08T06:07:04.112Z,0.98
2019-03-08T06:09:31.795Z,1.67
2019-03-08T06:11:59.603Z,1.60
2019-03-08T06:14:27.738Z,1.17
2019-03-08T06:16:55.612Z,2.17
2019-03-08T06:19:23.589Z,1.75
2019-03-08T06:21:51.276Z,1.92
2019-03-08T06:24:18.986Z,1.10
2019-03-08T06:26:46.682Z,1.00
2019-03-08T06:29:14.913Z,1.45
2019-03-08T06:31:42.925Z,1.12
2019-03-08T06:34:11.027Z,0.93
2019-03-08T06:36:39.133Z,1.80
2019-03-08T06:39:08.562Z,0.80
2019-03-08T06:41:36.495Z,0.90
2019-03-08T06:44:04.466Z,1.02
2019-03-08T06:46:33.118Z,0.90
2019-03-08T06:49:01.009Z,1.85
2019-03-08T06:51:29.158Z,2.20
2019-03-08T06:53:57.458Z,1.05
2019-03-08T06:56:25.579Z,1.52
2019-03-08T06:59:13.561Z,0.90
2019-03-08T07:01:42.365Z,1.05
2019-03-08T07:04:10.286Z,4.25
2019-03-08T07:06:37.974Z,2.95
2019-03-08T07:09:07.280Z,0.90
2019-03-08T07:11:35.449Z,1.10
2019-03-08T07:14:03.443Z,1.20
2019-03-08T07:16:31.486Z,5.05
2019-03-08T07:18:59.561Z,1.47
2019-03-08T07:21:40.929Z,4.08
2019-03-08T07:24:18.525Z,2.67
2019-03-08T07:27:13.333Z,2.95
2019-03-08T07:30:06.829Z,1.12
2019-03-08T07:32:43.692Z,2.42
2019-03-08T07:35:48.826Z,1.15
2019-03-08T07:38:39.547Z,1.10
2019-03-08T07:41:29.723Z,1.50
2019-03-08T07:44:06.247Z,1.22
2019-03-08T07:47:09.507Z,1.80
2019-03-08T07:50:06.699Z,2.15
2019-03-08T07:52:54.330Z,3.55
2019-03-08T07:55:33.034Z,4.05
2019-03-08T07:58:12.543Z,1.65
2019-03-08T08:01:06.163Z,1.30
2019-03-08T08:03:59.392Z,0.90
2019-03-08T08:06:37.508Z,3.45
2019-03-08T08:09:33.000Z,10.28
2019-03-08T08:12:27.061Z,8.08
2019-03-08T08:15:03.748Z,4.67
2019-03-08T08:17:46.585Z,7.90
2019-03-08T08:20:27.329Z,3.45
2019-03-08T08:23:20.910Z,4.25
2019-03-08T08:25:58.958Z,2.65
2019-03-08T08:28:49.723Z,3.55
2019-03-08T08:31:35.822Z,3.65
2019-03-08T08:34:24.606Z,3.20
2019-03-08T08:37:14.798Z,2.02
2019-03-08T08:40:08.185Z,3.00
2019-03-08T08:42:51.548Z,5.22
2019-03-08T08:45:38.911Z,5.00
2019-03-08T08:48:21.387Z,8.78
2019-03-08T08:51:07.219Z,3.77
2019-03-08T08:53:54.674Z,11.28
2019-03-08T08:56:51.102Z,9.00
2019-03-08T08:59:38.845Z,9.13
2019-03-08T09:02:21.550Z,11.38
2019-03-08T09:05:18.916Z,15.38
2019-03-08T09:07:54.881Z,9.58
2019-03-08T09:10:41.205Z,9.40
2019-03-08T09:13:23.013Z,10.68
2019-03-08T09:16:11.317Z,7.53
2019-03-08T09:19:05.154Z,12.23
2019-03-08T09:21:55.751Z,13.48
2019-03-08T09:24:39.514Z,20.48
2019-03-08T09:27:25.628Z,36.73
2019-03-08T09:30:14.258Z,31.60
2019-03-08T09:32:48.951Z,45.00
2019-03-08T09:35:42.511Z,54.85
2019-03-08T09:38:39.270Z,48.10
2019-03-08T09:41:25.563Z,40.45
2019-03-08T09:44:00.824Z,37.28
2019-03-08T09:46:47.034Z,37.33
2019-03-08T09:49:37.186Z,33.55
2019-03-08T09:52:16.100Z,27.35
2019-03-08T09:55:04.335Z,28.12
2019-03-08T09:57:52.205Z,18.02
2019-03-08T10:00:39.781Z,15.83
2019-03-08T10:03:20.283Z,16.95
2019-03-08T10:06:22.843Z,20.00
2019-03-08T10:09:19.966Z,13.25
2019-03-08T10:12:16.569Z,15.55
2019-03-08T10:15:02.406Z,18.00
2019-03-08T10:17:49.791Z,15.75
2019-03-08T10:20:35.253Z,19.30
2019-03-08T10:23:29.006Z,12.98
2019-03-08T10:26:09.547Z,15.08
2019-03-08T10:28:56.841Z,7.20
2019-03-08T10:31:35.039Z,7.92
2019-03-08T10:34:31.715Z,12.55
2019-03-08T10:37:22.011Z,13.20
2019-03-08T10:40:14.659Z,15.53
2019-03-08T10:42:54.092Z,10.48
2019-03-08T10:45:53.549Z,10.48
2019-03-08T10:48:36.748Z,9.98
2019-03-08T10:51:26.418Z,9.80
2019-03-08T10:54:29.484Z,6.50
2019-03-08T10:57:12.932Z,6.72
2019-03-08T11:00:09.585Z,8.53
2019-03-08T11:02:57.289Z,7.30
2019-03-08T11:05:40.009Z,6.70
2019-03-08T11:08:16.641Z,4.30
2019-03-08T11:10:56.634Z,7.17
2019-03-08T11:13:45.686Z,9.03
2019-03-08T11:16:37.294Z,9.63
2019-03-08T11:19:34.084Z,7.30
2019-03-08T11:22:27.603Z,4.58
2019-03-08T11:25:13.806Z,6.12
2019-03-08T11:27:54.801Z,7.80
2019-03-08T11:30:54.439Z,4.95
2019-03-08T11:33:47.640Z,7.42
2019-03-08T11:36:32.891Z,7.00
2019-03-08T11:39:12.439Z,7.58
2019-03-08T11:42:18.503Z,8.08
2019-03-08T11:45:05.692Z,7.55
2019-03-08T11:47:44.351Z,5.40
2019-03-08T11:50:37.422Z,7.42
2019-03-08T11:53:14.187Z,5.65
2019-03-08T11:56:13.815Z,5.45
2019-03-08T11:59:03.457Z,3.87
2019-03-08T12:01:53.803Z,6.78
2019-03-08T12:04:40.863Z,7.47
2019-03-08T12:07:17.362Z,3.87
2019-03-08T12:10:03.182Z,3.85
2019-03-08T12:12:56.473Z,4.70
2019-03-08T12:15:46.793Z,4.72
2019-03-08T12:18:34.257Z,6.35
2019-03-08T12:21:20.398Z,7.55
2019-03-08T12:24:19.951Z,6.33
2019-03-08T12:27:07.487Z,7.12
2019-03-08T12:30:04.715Z,7.12
2019-03-08T12:32:38.061Z,5.62
2019-03-08T12:35:26.198Z,10.65
2019-03-08T12:38:11.354Z,7.62
2019-03-08T12:41:04.665Z,5.67
2019-03-08T12:43:54.987Z,3.20
2019-03-08T12:46:51.393Z,3.40
2019-03-08T12:49:34.180Z,3.12
2019-03-08T12:52:19.273Z,6.33
2019-03-08T12:55:05.160Z,6.28
2019-03-08T12:58:01.592Z,3.45
2019-03-08T13:00:55.262Z,7.55
2019-03-08T13:03:35.118Z,4.10
2019-03-08T13:06:10.742Z,4.80
2019-03-08T13:08:46.411Z,4.60
2019-03-08T13:11:14.265Z,5.25
2019-03-08T13:13:43.119Z,8.15
2019-03-08T13:16:14.230Z,5.83
2019-03-08T13:18:42.246Z,5.28
2019-03-08T13:21:10.789Z,3.90
2019-03-08T13:23:38.672Z,2.42
2019-03-08T13:26:06.535Z,3.83
2019-03-08T13:28:35.131Z,7.78
2019-03-08T13:31:05.271Z,3.42
2019-03-08T13:33:32.983Z,4.85
2019-03-08T13:36:00.682Z,3.62
2019-03-08T13:38:29.849Z,4.97
2019-03-08T13:40:58.144Z,6.33
2019-03-08T13:43:26.104Z,10.40
2019-03-08T13:46:34.922Z,7.00
2019-03-08T13:49:02.912Z,5.20
2019-03-08T13:51:30.955Z,3.80
2019-03-08T13:53:58.598Z,8.03
2019-03-08T13:56:26.558Z,4.53
2019-03-08T13:58:54.862Z,4.37
2019-03-08T14:01:22.513Z,3.37
2019-03-08T14:03:50.603Z,5.65
2019-03-08T14:06:18.961Z,6.95
2019-03-08T14:08:46.773Z,5.97
2019-03-08T14:11:14.991Z,2.72
2019-03-08T14:13:42.570Z,7.12
2019-03-08T14:16:10.630Z,3.33
2019-03-08T14:18:38.454Z,3.55
2019-03-08T14:21:06.344Z,4.53
2019-03-08T14:23:34.565Z,2.52
2019-03-08T14:26:02.268Z,4.70
2019-03-08T14:28:31.172Z,4.05
2019-03-08T14:31:08.913Z,2.50
2019-03-08T14:33:38.181Z,3.98
2019-03-08T14:36:07.147Z,4.20
2019-03-08T14:38:37.683Z,3.22
2019-03-08T14:41:21.301Z,4.95
2019-03-08T14:44:08.560Z,3.90
2019-03-08T14:46:43.780Z,2.30
2019-03-08T14:49:11.803Z,2.35
2019-03-08T14:51:40.096Z,3.10
2019-03-08T14:54:09.851Z,3.00
2019-03-08T14:56:37.929Z,3.08
2019-03-08T14:59:05.704Z,2.17
2019-03-08T15:01:33.337Z,2.45
2019-03-08T15:04:00.989Z,5.65
2019-03-08T15:06:29.611Z,3.25
2019-03-08T15:08:57.478Z,2.90
2019-03-08T15:11:25.534Z,3.75
2019-03-08T15:13:53.312Z,2.77
2019-03-08T15:16:21.746Z,2.92
2019-03-08T15:18:49.446Z,4.03
2019-03-08T15:21:17.776Z,3.40
2019-03-08T15:23:46.447Z,2.55
2019-03-08T15:26:14.386Z,2.92
2019-03-08T15:28:42.182Z,3.80
2019-03-08T15:31:09.936Z,2.00
2019-03-08T15:33:37.846Z,6.17
2019-03-08T15:36:05.492Z,2.05
2019-03-08T15:38:33.339Z,3.87
2019-03-08T15:41:01.411Z,3.58
2019-03-08T15:43:29.048Z,3.80
2019-03-08T15:45:56.738Z,1.92
2019-03-08T15:48:24.487Z,2.83
2019-03-08T15:50:52.325Z,3.33
2019-03-08T15:53:20.087Z,3.75
2019-03-08T15:55:52.798Z,1.90
2019-03-08T15:58:18.282Z,4.15
2019-03-08T16:00:46.172Z,4.72
2019-03-08T16:03:13.966Z,3.17
2019-03-08T16:05:41.716Z,5.67
2019-03-08T16:08:10.375Z,3.37
2019-03-08T16:10:39.182Z,2.58
2019-03-08T16:13:07.331Z,3.10
2019-03-08T16:15:36.109Z,6.85
2019-03-08T16:18:03.864Z,5.45
2019-03-08T16:20:31.715Z,14.87
2019-03-08T16:23:02.666Z,8.48
2019-03-08T16:25:29.527Z,10.23
2019-03-08T16:27:57.748Z,20.00
2019-03-08T16:30:31.710Z,13.83
2019-03-08T16:33:27.748Z,11.45
2019-03-08T16:36:25.707Z,14.13
2019-03-08T16:39:11.940Z,20.02
2019-03-08T16:42:18.241Z,11.10
2019-03-08T16:45:05.764Z,10.20
2019-03-08T16:47:51.953Z,16.62
2019-03-08T16:50:35.958Z,13.50
2019-03-08T16:53:21.395Z,20.90
2019-03-08T16:55:57.307Z,32.40
2019-03-08T16:58:43.550Z,19.73
2019-03-08T17:01:26.040Z,20.15
2019-03-08T17:04:12.796Z,11.70
2019-03-08T17:06:46.475Z,16.55
2019-03-08T17:09:27.800Z,13.40
2019-03-08T17:12:08.092Z,12.43
2019-03-08T17:15:10.283Z,18.77
2019-03-08T17:18:15.913Z,10.70
2019-03-08T17:21:06.307Z,19.52
2019-03-08T17:24:02.656Z,21.57
2019-03-08T17:26:52.721Z,23.77
2019-03-08T17:29:38.507Z,18.52
2019-03-08T17:32:11.785Z,13.85
2019-03-08T17:35:08.376Z,16.87
2019-03-08T17:37:50.867Z,22.13
2019-03-08T17:40:37.080Z,18.57
2019-03-08T17:43:17.806Z,16.70
2019-03-08T17:45:53.845Z,13.55
2019-03-08T17:48:47.032Z,15.70
2019-03-08T17:51:37.570Z,19.52
2019-03-08T17:54:27.586Z,18.85
2019-03-08T17:57:15.253Z,15.23
2019-03-08T18:00:15.278Z,19.52
2019-03-08T18:02:58.867Z,14.70
2019-03-08T18:05:52.476Z,21.60
2019-03-08T18:08:39.148Z,25.92
2019-03-08T18:11:17.143Z,21.42
2019-03-08T18:14:07.692Z,18.32
2019-03-08T18:16:49.859Z,18.60
2019-03-08T18:19:56.276Z,17.17
2019-03-08T18:22:44.089Z,17.70
2019-03-08T18:25:29.205Z,14.65
2019-03-08T18:28:26.006Z,13.88
2019-03-08T18:31:14.114Z,16.40
2019-03-08T18:33:47.745Z,16.30
2019-03-08T18:36:50.721Z,15.95
2019-03-08T18:39:37.702Z,18.02
2019-03-08T18:42:15.019Z,22.22
2019-03-08T18:45:04.987Z,19.23
2019-03-08T18:47:52.405Z,13.83
2019-03-08T18:50:42.586Z,18.10
2019-03-08T18:53:39.552Z,16.82
2019-03-08T18:56:26.120Z,18.60
2019-03-08T18:59:16.775Z,18.92
2019-03-08T19:02:16.938Z,19.12
2019-03-08T19:05:04.592Z,17.80
2019-03-08T19:07:55.072Z,18.75
2019-03-08T19:10:33.674Z,19.30
2019-03-08T19:13:11.375Z,20.17
2019-03-08T19:15:57.456Z,19.75
2019-03-08T19:18:44.904Z,13.30
2019-03-08T19:21:31.231Z,13.05
2019-03-08T19:24:08.268Z,13.68
2019-03-08T19:26:54.298Z,22.55
2019-03-08T19:29:45.778Z,12.45
2019-03-08T19:32:36.282Z,13.28
2019-03-08T19:35:10.726Z,18.00
2019-03-08T19:37:56.822Z,12.33
2019-03-08T19:41:02.841Z,16.32
2019-03-08T19:43:41.480Z,16.05
2019-03-08T19:46:31.987Z,14.43
2019-03-08T19:49:18.600Z,12.78
2019-03-08T19:52:05.015Z,12.53
2019-03-08T19:54:52.590Z,14.68
2019-03-08T19:57:38.792Z,13.98
2019-03-08T20:00:30.273Z,17.00
2019-03-08T20:03:17.347Z,19.25
2019-03-08T20:05:51.721Z,16.77
2019-03-08T20:08:37.597Z,20.88
2019-03-08T20:11:31.068Z,11.30
2019-03-08T20:14:18.600Z,14.38
2019-03-08T20:17:04.073Z,12.07
2019-03-08T20:19:39.265Z,11.48
2019-03-08T20:22:18.148Z,10.30
2019-03-08T20:25:11.572Z,12.37
2019-03-08T20:28:11.186Z,10.50
2019-03-08T20:30:58.670Z,11.43
2019-03-08T20:33:49.647Z,12.28
2019-03-08T20:36:36.561Z,10.75
2019-03-08T20:39:40.301Z,10.65
2019-03-08T20:42:22.444Z,12.82
2019-03-08T20:45:10.079Z,10.05
2019-03-08T20:47:37.899Z,9.73
2019-03-08T20:50:08.207Z,13.85
2019-03-08T20:52:36.236Z,10.47
2019-03-08T20:55:04.091Z,12.98
2019-03-08T20:57:32.268Z,8.43
2019-03-08T21:00:00.596Z,8.73
2019-03-08T21:02:28.793Z,13.70
2019-03-08T21:04:57.548Z,11.60
2019-03-08T21:07:25.993Z,7.12
2019-03-08T21:09:53.953Z,10.13
2019-03-08T21:12:21.660Z,8.73
2019-03-08T21:14:50.092Z,12.25
2019-03-08T21:17:20.338Z,9.25
2019-03-08T21:19:48.577Z,7.47
2019-03-08T21:22:16.689Z,8.13
2019-03-08T21:24:45.266Z,6.10
2019-03-08T21:27:13.417Z,7.30
2019-03-08T21:29:41.306Z,9.68
2019-03-08T21:32:10.778Z,9.45
2019-03-08T21:34:38.481Z,9.28
2019-03-08T21:37:06.060Z,6.60
2019-03-08T21:39:34.602Z,8.25
2019-03-08T21:42:02.531Z,6.50
2019-03-08T21:44:31.994Z,6.53
2019-03-08T21:46:59.994Z,8.08
2019-03-08T21:49:28.092Z,7.22
2019-03-08T21:51:55.951Z,7.97
2019-03-08T21:54:24.905Z,7.03
2019-03-08T21:56:53.596Z,5.45
2019-03-08T21:59:21.412Z,6.37
2019-03-08T22:01:49.059Z,6.10
2019-03-08T22:04:25.773Z,8.40
2019-03-08T22:06:53.478Z,7.62
2019-03-08T22:09:31.064Z,8.13
2019-03-08T22:11:58.776Z,7.15
2019-03-08T22:14:26.891Z,6.55
2019-03-08T22:16:54.763Z,8.80
2019-03-08T22:19:22.453Z,6.72
2019-03-08T22:21:50.284Z,5.35
2019-03-08T22:24:18.123Z,7.83
2019-03-08T22:26:45.899Z,5.33
2019-03-08T22:29:13.875Z,6.55
2019-03-08T22:31:42.160Z,7.60
2019-03-08T22:34:09.914Z,6.35
2019-03-08T22:36:37.422Z,4.95
2019-03-08T22:39:06.232Z,7.80
2019-03-08T22:41:34.336Z,6.00
2019-03-08T22:44:02.221Z,5.53
2019-03-08T22:46:30.242Z,6.47
2019-03-08T22:48:58.475Z,3.62
2019-03-08T22:51:27.560Z,6.15
2019-03-08T22:53:55.499Z,6.12
2019-03-08T22:56:23.314Z,5.25
2019-03-08T22:58:51.222Z,6.40
2019-03-08T23:01:19.926Z,6.55
2019-03-08T23:03:47.702Z,4.75
2019-03-08T23:06:17.454Z,4.40
2019-03-08T23:08:46.649Z,5.72
2019-03-08T23:11:17.086Z,4.67
2019-03-08T23:13:46.511Z,4.92
2019-03-08T23:16:16.398Z,5.53
2019-03-08T23:18:44.978Z,4.08
2019-03-08T23:21:14.219Z,5.22
2019-03-08T23:23:42.790Z,4.47
2019-03-08T23:26:10.876Z,3.62
2019-03-08T23:28:49.363Z,3.85
2019-03-08T23:31:25.319Z,3.27
2019-03-08T23:33:54.112Z,5.92
2019-03-08T23:36:22.943Z,4.35
2019-03-08T23:38:52.183Z,4.08
2019-03-08T23:41:21.393Z,5.45
2019-03-08T23:43:50.987Z,6.67
2019-03-08T23:46:19.356Z,3.85
2019-03-08T23:48:47.712Z,5.53
2019-03-08T23:51:16.190Z,4.37
2019-03-08T23:53:46.328Z,4.08
2019-03-08T23:56:14.609Z,4.65
2019-03-08T23:58:42.930Z,4.05
